Gudrun Maersk — OYAU2 — position and weather

sailwx.info

Track history (hours):
 
Tides and Currents Weather Stations Pressure Air Temp Water Temp Dewpoint Dewpoint Depression Visibility Wind Speed Wind Dir Waves Ship Positions

Gudrun Maersk

Last reported at 2018-May-20 13:02 UTC. Time now 2018-May-20 21:39 UTC.
Position N 38°16' W 125°14'.

Length 368 m; draft 12.6 m.

Type: Ship (hazmat cat A). MMSI: 220379000.

Date/timePositionNaut miles runAvg speedWind from/ knotsBaromVisibWave heightAir tempDewpointWater temp
2018-May-20 13:02N 38°16' W 125°14'111.1
2018-May-20 12:58N 38°16' W 125°13'2711.1
2018-May-20 10:31N 38°14' W 124°39'013.1
2018-May-20 10:30N 38°14' W 124°38'1010.7
2018-May-20 09:36N 38°13' W 124°26'410.9
2018-May-20 09:14N 38°13' W 124°21'311.0
2018-May-20 08:59N 38°13' W 124°18'610.9
2018-May-20 08:28N 38°13' W 124°10'510.7
2018-May-20 07:58N 38°12' W 124°04'510.7
2018-May-20 07:30N 38°12' W 123°57'510.6
2018-May-20 07:00N 38°11' W 123°51'510.8
2018-May-20 06:30N 38°11' W 123°44'510.8
2018-May-20 06:00N 38°10' W 123°37'510.5
2018-May-20 05:30N 38°10' W 123°30'510.4
2018-May-20 05:00N 38°10' W 123°24'5 9.9
2018-May-20 04:30N 38°07' W 123°18'510.6
2018-May-20 04:00N 38°03' W 123°14'510.8
2018-May-20 03:30N 37°59' W 123°09'510.9
2018-May-20 03:00N 37°56' W 123°03'611.4
2018-May-20 02:30N 37°53' W 122°57'611.6
2018-May-20 02:00N 37°50' W 122°51'611.7
2018-May-20 01:30N 37°47' W 122°44'4 7.8
2018-May-20 01:00N 37°46' W 122°40'510.5
2018-May-20 00:30N 37°47' W 122°33'5 9.7
2018-May-20 00:01N 37°50' W 122°28'4 8.4
2018-May-19 23:30N 37°49' W 122°23'3 6.7
2018-May-19 23:00N 37°48' W 122°19'0 0.2
2018-May-19 22:31N 37°48' W 122°19'0 0.0
2018-May-19 21:58N 37°48' W 122°19'0 0.0
2018-May-19 21:28N 37°48' W 122°19'0 0.0
2018-May-19 21:01N 37°48' W 122°19'0 0.0
2018-May-19 20:28N 37°48' W 122°19'0 0.0
2018-May-19 20:01N 37°48' W 122°19'0 0.0
2018-May-19 19:28N 37°48' W 122°19'0 0.0
2018-May-19 19:01N 37°48' W 122°19'0 0.0
2018-May-19 18:31N 37°48' W 122°19'0 0.0
2018-May-19 17:58N 37°48' W 122°19'0 0.0
2018-May-19 17:28N 37°48' W 122°19'0 0.0
2018-May-19 17:01N 37°48' W 122°19'0 0.0
2018-May-19 16:28N 37°48' W 122°19'0 0.0
2018-May-19 15:58N 37°48' W 122°19'0 0.0
2018-May-19 15:31N 37°48' W 122°19'0 0.0
2018-May-19 15:01N 37°48' W 122°19'0 0.0
2018-May-19 14:31N 37°48' W 122°19'0 0.0
2018-May-19 14:01N 37°48' W 122°19'0 0.0
2018-May-19 13:31N 37°48' W 122°19'0 0.0
2018-May-19 13:01N 37°48' W 122°19'0 0.0
2018-May-19 12:28N 37°48' W 122°19'0 0.0
2018-May-19 12:01N 37°48' W 122°19'0 0.0
2018-May-19 11:28N 37°48' W 122°19'0 0.0
2018-May-19 11:01N 37°48' W 122°19'0 0.0
2018-May-19 10:31N 37°48' W 122°19'0 0.0
2018-May-19 09:55N 37°48' W 122°19'0 0.0
2018-May-19 09:31N 37°48' W 122°19'0 0.0
2018-May-19 08:58N 37°48' W 122°19'0 0.0
2018-May-19 08:28N 37°48' W 122°19'0 0.0
2018-May-19 08:01N 37°48' W 122°19'0 0.0
2018-May-19 07:28N 37°48' W 122°19'0 0.0
2018-May-19 06:58N 37°48' W 122°19'0 0.0
2018-May-19 06:28N 37°48' W 122°19'0 0.0
2018-May-19 05:52N 37°48' W 122°19'0 0.0
2018-May-19 05:31N 37°48' W 122°19'0 0.0
2018-May-19 04:58N 37°48' W 122°19'0 0.0
2018-May-19 04:28N 37°48' W 122°19'0 0.0
2018-May-19 03:58N 37°48' W 122°19'0 0.0
2018-May-19 03:28N 37°48' W 122°19'0 0.0
2018-May-19 02:58N 37°48' W 122°19'0 0.0
2018-May-19 02:28N 37°48' W 122°19'0 0.0
2018-May-19 01:58N 37°48' W 122°19'0 0.0
2018-May-19 01:28N 37°48' W 122°19'0 0.0
2018-May-19 00:58N 37°48' W 122°19'1 1.6
2018-May-19 00:30N 37°48' W 122°18'0 0.1
2018-May-19 00:00N 37°48' W 122°18'2 3.3
2018-May-18 23:30N 37°48' W 122°20'3 6.1
2018-May-18 23:00N 37°49' W 122°23'510.0
2018-May-18 22:30N 37°49' W 122°30'815.7
2018-May-18 22:00N 37°46' W 122°39'612.7
2018-May-18 21:30N 37°39' W 122°40'1020.7
2018-May-18 21:01N 37°29' W 122°40'1121.0
2018-May-18 20:31N 37°18' W 122°40'1120.8
2018-May-18 20:00N 37°08' W 122°37'1021.0
2018-May-18 19:31N 36°58' W 122°33'13320.7
2018-May-18 13:05N 35°00' W 121°17'220.6
2018-May-18 13:00N 34°59' W 121°15'1020.3
2018-May-18 12:31N 34°50' W 121°09'1020.3
2018-May-18 12:01N 34°42' W 121°03'1020.3
2018-May-18 11:30N 34°33' W 120°57'919.2
2018-May-18 11:01N 34°25' W 120°49'1019.9
2018-May-18 10:29N 34°23' W 120°37'1020.5
2018-May-18 10:01N 34°20' W 120°26'1121.5
2018-May-18 09:30N 34°17' W 120°13'1020.9
2018-May-18 09:00N 34°14' W 120°01'1121.0
2018-May-18 08:28N 34°11' W 119°48'1121.4
2018-May-18 07:58N 34°08' W 119°35'1021.3
2018-May-18 07:29N 34°06' W 119°24'1021.2
2018-May-18 07:00N 34°02' W 119°12'916.0
2018-May-18 06:27N 33°58' W 119°02'511.5
2018-May-18 05:59N 33°55' W 118°57'611.7
2018-May-18 05:30N 33°53' W 118°51'911.6
2018-May-18 04:44N 33°48' W 118°42'411.6
2018-May-18 04:22N 33°46' W 118°37'511.4
2018-May-18 03:59N 33°44' W 118°33'711.7
2018-May-18 03:21N 33°40' W 118°25'411.5
2018-May-18 03:00N 33°39' W 118°21'611.6
2018-May-18 02:30N 33°39' W 118°14'5 9.7
2018-May-18 02:00N 33°43' W 118°11'3 5.9
2018-May-18 01:30N 33°45' W 118°14'0 0.9
2018-May-18 01:00N 33°45' W 118°14'0 0.0
2018-May-18 00:30N 33°45' W 118°14'0 0.0
2018-May-17 23:58N 33°45' W 118°14'0 0.0
2018-May-17 23:28N 33°45' W 118°14'0 0.0
2018-May-17 22:58N 33°45' W 118°14'0 0.0
2018-May-17 22:28N 33°45' W 118°14'0 0.0
2018-May-17 21:58N 33°45' W 118°14'0 0.0
2018-May-17 21:28N 33°45' W 118°14'0 0.0
2018-May-17 20:58N 33°45' W 118°14'0 0.0
2018-May-17 20:25N 33°45' W 118°14'0 0.0
2018-May-17 19:58N 33°45' W 118°14'0 0.0
2018-May-17 19:28N 33°45' W 118°14'0 0.0
2018-May-17 18:58N 33°45' W 118°14'0 0.0
2018-May-17 18:28N 33°45' W 118°14'0 0.0
2018-May-17 17:58N 33°45' W 118°14'0 0.0
2018-May-17 17:28N 33°45' W 118°14'0 0.0
2018-May-17 16:58N 33°45' W 118°14'0 0.0
2018-May-17 16:28N 33°45' W 118°14'0 0.0
2018-May-17 15:58N 33°45' W 118°14'0 0.0
2018-May-17 15:28N 33°45' W 118°14'0 0.0
2018-May-17 14:58N 33°45' W 118°14'0 0.0
2018-May-17 14:28N 33°45' W 118°14'0 0.0
2018-May-17 13:58N 33°45' W 118°14'0 0.0
2018-May-17 13:28N 33°45' W 118°14'0 0.0
2018-May-17 12:58N 33°45' W 118°14'0 0.0
2018-May-17 12:28N 33°45' W 118°14'0 0.0
2018-May-17 11:58N 33°45' W 118°14'0 0.0
2018-May-17 11:28N 33°45' W 118°14'0 0.0
2018-May-17 10:58N 33°45' W 118°14'0 0.0
2018-May-17 10:28N 33°45' W 118°14'0 0.0
2018-May-17 09:58N 33°45' W 118°14'0 0.0
2018-May-17 09:28N 33°45' W 118°14'0 0.0
2018-May-17 08:58N 33°45' W 118°14'0 0.0
2018-May-17 08:19N 33°45' W 118°14'0 0.0
2018-May-17 07:58N 33°45' W 118°14'0 0.0
2018-May-17 07:28N 33°45' W 118°14'0 0.0
2018-May-17 06:52N 33°45' W 118°14'0 0.0
2018-May-17 06:28N 33°45' W 118°14'0 0.0
2018-May-17 05:58N 33°45' W 118°14'0 0.0
2018-May-17 05:28N 33°45' W 118°14'0 0.0
2018-May-17 04:58N 33°45' W 118°14'0 0.0
2018-May-17 04:28N 33°45' W 118°14'0 0.0
2018-May-17 03:58N 33°45' W 118°14'0 0.0
2018-May-17 03:28N 33°45' W 118°14'0 0.0
2018-May-17 02:58N 33°45' W 118°14'0 0.0
2018-May-17 02:28N 33°45' W 118°14'0 0.0
2018-May-17 01:58N 33°45' W 118°14'0 0.0
2018-May-17 01:28N 33°45' W 118°14'0 0.0
2018-May-17 00:58N 33°45' W 118°14'0 0.0
2018-May-17 00:28N 33°45' W 118°14'0 0.0
2018-May-16 23:52N 33°45' W 118°14'0 0.0
2018-May-16 23:28N 33°45' W 118°14'0 0.0
2018-May-16 22:58N 33°45' W 118°14'0 0.0
2018-May-16 22:28N 33°45' W 118°14'0 0.0
2018-May-16 21:58N 33°45' W 118°14'0 0.0
2018-May-16 21:28N 33°45' W 118°14'0 0.0
2018-May-16 20:58N 33°45' W 118°14'0 0.0
2018-May-16 20:28N 33°45' W 118°14'0 0.0
2018-May-16 19:58N 33°45' W 118°14'0 0.0
2018-May-16 19:28N 33°45' W 118°14'0 0.0
2018-May-16 18:55N 33°45' W 118°14'0 0.0
2018-May-16 18:28N 33°45' W 118°14'0 0.0
2018-May-16 17:58N 33°45' W 118°14'0 0.0
2018-May-16 17:28N 33°45' W 118°14'0 0.0
2018-May-16 16:49N 33°45' W 118°14'0 0.0
2018-May-16 16:28N 33°45' W 118°14'0 0.0
2018-May-16 15:58N 33°45' W 118°14'0 0.0
2018-May-16 15:25N 33°45' W 118°14'0 0.0
2018-May-16 14:58N 33°45' W 118°14'0 0.0
2018-May-16 14:28N 33°45' W 118°14'0 0.0
2018-May-16 13:58N 33°45' W 118°14'0 0.0
2018-May-16 13:28N 33°45' W 118°14'0 0.0
2018-May-16 12:58N 33°45' W 118°14'0 0.0
2018-May-16 12:28N 33°45' W 118°14'0 0.0
2018-May-16 11:58N 33°45' W 118°14'0 0.0
2018-May-16 11:28N 33°45' W 118°14'0 0.0
2018-May-16 10:58N 33°45' W 118°14'0 0.0
2018-May-16 10:28N 33°45' W 118°14'0 0.0
2018-May-16 09:58N 33°45' W 118°14'0 0.0
2018-May-16 09:28N 33°45' W 118°14'0 0.0
2018-May-16 08:58N 33°45' W 118°14'0 0.0
2018-May-16 08:28N 33°45' W 118°14'0 0.0
2018-May-16 07:58N 33°45' W 118°14'0 0.0
2018-May-16 07:28N 33°45' W 118°14'0 0.0
2018-May-16 06:58N 33°45' W 118°14'0 0.0
2018-May-16 06:28N 33°45' W 118°14'0 0.0
2018-May-16 05:58N 33°45' W 118°14'0 0.0
2018-May-16 05:28N 33°45' W 118°14'0 0.0
2018-May-16 04:58N 33°45' W 118°14'0 0.0
2018-May-16 04:28N 33°45' W 118°14'0 0.0
2018-May-16 03:55N 33°45' W 118°14'0 0.0
2018-May-16 03:28N 33°45' W 118°14'0 0.0
2018-May-16 02:58N 33°45' W 118°14'0 0.0
2018-May-16 02:28N 33°45' W 118°14'0 0.0
2018-May-16 01:55N 33°45' W 118°14'0 0.0
2018-May-16 01:28N 33°45' W 118°14'0 0.0
2018-May-16 00:58N 33°45' W 118°14'0 0.0
2018-May-16 00:28N 33°45' W 118°14'0 0.0
2018-May-15 23:58N 33°45' W 118°14'0 0.0
2018-May-15 23:28N 33°45' W 118°14'0 0.0
2018-May-15 22:58N 33°45' W 118°14'0 0.0
2018-May-15 22:28N 33°45' W 118°14'0 0.0
2018-May-15 21:58N 33°45' W 118°14'0 0.0
2018-May-15 21:28N 33°45' W 118°14'0 0.0
2018-May-15 20:58N 33°45' W 118°14'0 0.0
2018-May-15 20:28N 33°45' W 118°14'0 0.0
2018-May-15 19:58N 33°45' W 118°14'0 0.0
2018-May-15 19:28N 33°45' W 118°14'0 0.0
2018-May-15 18:58N 33°45' W 118°14'0 0.0
2018-May-15 18:28N 33°45' W 118°14'0 0.0
2018-May-15 17:55N 33°45' W 118°14'0 0.0
2018-May-15 17:28N 33°45' W 118°14'0 0.0
2018-May-15 16:58N 33°45' W 118°14'0 0.0
2018-May-15 16:28N 33°45' W 118°14'0 0.0
2018-May-15 15:58N 33°45' W 118°14'0 0.0
2018-May-15 15:25N 33°45' W 118°14'0 0.0
2018-May-15 14:58N 33°45' W 118°14'0 0.0
2018-May-15 14:25N 33°45' W 118°14'0 0.0
2018-May-15 13:58N 33°45' W 118°14'0 0.0
2018-May-15 13:28N 33°45' W 118°14'0 0.0
2018-May-15 12:58N 33°45' W 118°14'0 0.0
2018-May-15 12:28N 33°45' W 118°14'0 0.0
2018-May-15 11:58N 33°45' W 118°14'0 0.0
2018-May-15 11:28N 33°45' W 118°14'0 0.0
2018-May-15 10:58N 33°45' W 118°14'0 0.0
2018-May-15 10:28N 33°45' W 118°14'0 0.0
2018-May-15 09:58N 33°45' W 118°14'0 0.0
2018-May-15 09:28N 33°45' W 118°14'0 0.0
2018-May-15 08:55N 33°45' W 118°14'0 0.0
2018-May-15 08:28N 33°45' W 118°14'0 0.0
2018-May-15 07:58N 33°45' W 118°14'0 0.0
2018-May-15 07:25N 33°45' W 118°14'0 0.0
2018-May-15 06:58N 33°45' W 118°14'0 0.0
2018-May-15 06:28N 33°45' W 118°14'0 0.0
2018-May-15 05:58N 33°45' W 118°14'0 0.0
2018-May-15 05:28N 33°45' W 118°14'0 0.0
2018-May-15 04:58N 33°45' W 118°14'0 0.0
2018-May-15 04:28N 33°45' W 118°14'0 0.0
2018-May-15 03:58N 33°45' W 118°14'0 0.0
2018-May-15 03:25N 33°45' W 118°14'0 0.0
2018-May-15 02:58N 33°45' W 118°14'0 0.0
2018-May-15 02:28N 33°45' W 118°14'0 0.0
2018-May-15 01:58N 33°45' W 118°14'0 0.0
2018-May-15 01:25N 33°45' W 118°14'0 0.0
2018-May-15 00:58N 33°45' W 118°14'0 0.0
2018-May-15 00:28N 33°45' W 118°14'0 0.0
2018-May-14 23:58N 33°45' W 118°14'0 0.0
2018-May-14 23:28N 33°45' W 118°14'0 0.0
2018-May-14 22:58N 33°45' W 118°14'0 0.0
2018-May-14 22:28N 33°45' W 118°14'0 0.0
2018-May-14 21:58N 33°45' W 118°14'0 0.0
2018-May-14 21:28N 33°45' W 118°14'0 0.0
2018-May-14 20:58N 33°45' W 118°14'0 0.0
2018-May-14 16:22N 33°45' W 118°14'0 0.0
2018-May-14 14:55N 33°45' W 118°14'0 0.0
2018-May-14 14:28N 33°45' W 118°14'0 0.0
2018-May-14 13:58N 33°45' W 118°14'0 0.0
2018-May-14 13:28N 33°45' W 118°14'0 0.0
2018-May-14 12:58N 33°45' W 118°14'0 0.0
2018-May-14 12:28N 33°45' W 118°14'0 0.0
2018-May-14 11:55N 33°45' W 118°14'0 0.0
2018-May-14 11:28N 33°45' W 118°14'0 0.0
2018-May-14 10:58N 33°45' W 118°14'0 0.0
2018-May-14 10:28N 33°45' W 118°14'0 0.0
2018-May-14 09:58N 33°45' W 118°14'0 0.0
2018-May-14 09:28N 33°45' W 118°14'0 0.0
2018-May-14 08:58N 33°45' W 118°14'0 0.0
2018-May-14 08:28N 33°45' W 118°14'0 0.0
2018-May-14 07:58N 33°45' W 118°14'0 0.0
2018-May-14 07:22N 33°45' W 118°14'0 0.0
2018-May-14 06:58N 33°45' W 118°14'0 0.0
2018-May-14 06:28N 33°45' W 118°14'0 0.0
2018-May-14 05:58N 33°45' W 118°14'0 0.0
2018-May-14 05:28N 33°45' W 118°14'0 0.0
2018-May-14 04:58N 33°45' W 118°14'0 0.0
2018-May-14 04:28N 33°45' W 118°14'0 0.0
2018-May-14 03:58N 33°45' W 118°14'0 0.0
2018-May-14 03:28N 33°45' W 118°14'0 0.0
2018-May-14 02:58N 33°45' W 118°14'0 0.0
2018-May-14 02:25N 33°45' W 118°14'0 0.0
2018-May-14 01:58N 33°45' W 118°14'0 0.0
2018-May-14 01:28N 33°45' W 118°14'0 0.0
2018-May-14 00:58N 33°45' W 118°14'0 0.0
2018-May-14 00:28N 33°45' W 118°14'0 0.0
2018-May-13 23:58N 33°45' W 118°14'0 0.0
2018-May-13 23:29N 33°45' W 118°14'0 0.0
2018-May-13 22:59N 33°45' W 118°14'0 0.0
2018-May-13 22:29N 33°45' W 118°14'0 0.0
2018-May-13 21:59N 33°45' W 118°14'0 0.0
2018-May-13 21:29N 33°45' W 118°14'0 0.0
2018-May-13 20:59N 33°45' W 118°14'0 0.0
2018-May-13 20:26N 33°45' W 118°14'0 0.0
2018-May-13 19:59N 33°45' W 118°14'0 0.0
2018-May-13 19:29N 33°45' W 118°14'0 0.0
2018-May-13 18:59N 33°45' W 118°14'1 1.5
2018-May-13 18:30N 33°45' W 118°14'4 7.2
2018-May-13 18:00N 33°42' W 118°11'5 9.6
2018-May-13 17:31N 33°38' W 118°13'3511.2
2018-May-13 14:25N 33°51' W 118°52'511.3
2018-May-13 14:01N 33°53' W 118°56'611.5
2018-May-13 13:30N 33°56' W 119°02'713.5
2018-May-13 13:00N 33°59' W 119°10'1018.3
2018-May-13 12:26N 34°03' W 119°21'818.5
2018-May-13 12:00N 34°06' W 119°30'918.1
2018-May-13 11:30N 34°08' W 119°41'1018.8
2018-May-13 10:59N 34°11' W 119°52'918.9
2018-May-13 10:30N 34°13' W 120°03'1018.6
2018-May-13 09:59N 34°16' W 120°14'918.4
2018-May-13 09:30N 34°18' W 120°25'817.4
2018-May-13 09:01N 34°20' W 120°35'917.9
2018-May-13 08:30N 34°23' W 120°45'1018.3
2018-May-13 07:58N 34°25' W 120°57'817.9
2018-May-13 07:31N 34°26' W 121°06'917.9
2018-May-13 07:00N 34°26' W 121°17'917.9
2018-May-13 06:31N 34°26' W 121°28'  
Track history (hours):
 
Tides and Currents Weather Stations Pressure Air Temp Water Temp Dewpoint Dewpoint Depression Visibility Wind Speed Wind Dir Waves Ship Positions

Gudrun Maersk

Last reported at 2018-May-20 13:02 UTC. Time now 2018-May-20 21:39 UTC.
Position N 38°16' W 125°14'.

Length 368 m; draft 12.6 m.

Type: Ship (hazmat cat A). MMSI: 220379000.

Date/timePositionNaut miles runAvg speedWind from/ knotsBaromVisibWave heightAir tempDewpointWater temp
2018-May-20 13:02N 38°16' W 125°14'111.1
2018-May-20 12:58N 38°16' W 125°13'2711.1
2018-May-20 10:31N 38°14' W 124°39'013.1
2018-May-20 10:30N 38°14' W 124°38'1010.7
2018-May-20 09:36N 38°13' W 124°26'410.9
2018-May-20 09:14N 38°13' W 124°21'311.0
2018-May-20 08:59N 38°13' W 124°18'610.9
2018-May-20 08:28N 38°13' W 124°10'510.7
2018-May-20 07:58N 38°12' W 124°04'510.7
2018-May-20 07:30N 38°12' W 123°57'510.6
2018-May-20 07:00N 38°11' W 123°51'510.8
2018-May-20 06:30N 38°11' W 123°44'510.8
2018-May-20 06:00N 38°10' W 123°37'510.5
2018-May-20 05:30N 38°10' W 123°30'510.4
2018-May-20 05:00N 38°10' W 123°24'5 9.9
2018-May-20 04:30N 38°07' W 123°18'510.6
2018-May-20 04:00N 38°03' W 123°14'510.8
2018-May-20 03:30N 37°59' W 123°09'510.9
2018-May-20 03:00N 37°56' W 123°03'611.4
2018-May-20 02:30N 37°53' W 122°57'611.6
2018-May-20 02:00N 37°50' W 122°51'611.7
2018-May-20 01:30N 37°47' W 122°44'4 7.8
2018-May-20 01:00N 37°46' W 122°40'510.5
2018-May-20 00:30N 37°47' W 122°33'5 9.7
2018-May-20 00:01N 37°50' W 122°28'4 8.4
2018-May-19 23:30N 37°49' W 122°23'3 6.7
2018-May-19 23:00N 37°48' W 122°19'0 0.2
2018-May-19 22:31N 37°48' W 122°19'0 0.0
2018-May-19 21:58N 37°48' W 122°19'0 0.0
2018-May-19 21:28N 37°48' W 122°19'0 0.0
2018-May-19 21:01N 37°48' W 122°19'0 0.0
2018-May-19 20:28N 37°48' W 122°19'0 0.0
2018-May-19 20:01N 37°48' W 122°19'0 0.0
2018-May-19 19:28N 37°48' W 122°19'0 0.0
2018-May-19 19:01N 37°48' W 122°19'0 0.0
2018-May-19 18:31N 37°48' W 122°19'0 0.0
2018-May-19 17:58N 37°48' W 122°19'0 0.0
2018-May-19 17:28N 37°48' W 122°19'0 0.0
2018-May-19 17:01N 37°48' W 122°19'0 0.0
2018-May-19 16:28N 37°48' W 122°19'0 0.0
2018-May-19 15:58N 37°48' W 122°19'0 0.0
2018-May-19 15:31N 37°48' W 122°19'0 0.0
2018-May-19 15:01N 37°48' W 122°19'0 0.0
2018-May-19 14:31N 37°48' W 122°19'0 0.0
2018-May-19 14:01N 37°48' W 122°19'0 0.0
2018-May-19 13:31N 37°48' W 122°19'0 0.0
2018-May-19 13:01N 37°48' W 122°19'0 0.0
2018-May-19 12:28N 37°48' W 122°19'0 0.0
2018-May-19 12:01N 37°48' W 122°19'0 0.0
2018-May-19 11:28N 37°48' W 122°19'0 0.0
2018-May-19 11:01N 37°48' W 122°19'0 0.0
2018-May-19 10:31N 37°48' W 122°19'0 0.0
2018-May-19 09:55N 37°48' W 122°19'0 0.0
2018-May-19 09:31N 37°48' W 122°19'0 0.0
2018-May-19 08:58N 37°48' W 122°19'0 0.0
2018-May-19 08:28N 37°48' W 122°19'0 0.0
2018-May-19 08:01N 37°48' W 122°19'0 0.0
2018-May-19 07:28N 37°48' W 122°19'0 0.0
2018-May-19 06:58N 37°48' W 122°19'0 0.0
2018-May-19 06:28N 37°48' W 122°19'0 0.0
2018-May-19 05:52N 37°48' W 122°19'0 0.0
2018-May-19 05:31N 37°48' W 122°19'0 0.0
2018-May-19 04:58N 37°48' W 122°19'0 0.0
2018-May-19 04:28N 37°48' W 122°19'0 0.0
2018-May-19 03:58N 37°48' W 122°19'0 0.0
2018-May-19 03:28N 37°48' W 122°19'0 0.0
2018-May-19 02:58N 37°48' W 122°19'0 0.0
2018-May-19 02:28N 37°48' W 122°19'0 0.0
2018-May-19 01:58N 37°48' W 122°19'0 0.0
2018-May-19 01:28N 37°48' W 122°19'0 0.0
2018-May-19 00:58N 37°48' W 122°19'1 1.6
2018-May-19 00:30N 37°48' W 122°18'0 0.1
2018-May-19 00:00N 37°48' W 122°18'2 3.3
2018-May-18 23:30N 37°48' W 122°20'3 6.1
2018-May-18 23:00N 37°49' W 122°23'510.0
2018-May-18 22:30N 37°49' W 122°30'815.7
2018-May-18 22:00N 37°46' W 122°39'612.7
2018-May-18 21:30N 37°39' W 122°40'1020.7
2018-May-18 21:01N 37°29' W 122°40'1121.0
2018-May-18 20:31N 37°18' W 122°40'1120.8
2018-May-18 20:00N 37°08' W 122°37'1021.0
2018-May-18 19:31N 36°58' W 122°33'13320.7
2018-May-18 13:05N 35°00' W 121°17'220.6
2018-May-18 13:00N 34°59' W 121°15'1020.3
2018-May-18 12:31N 34°50' W 121°09'1020.3
2018-May-18 12:01N 34°42' W 121°03'1020.3
2018-May-18 11:30N 34°33' W 120°57'919.2
2018-May-18 11:01N 34°25' W 120°49'1019.9
2018-May-18 10:29N 34°23' W 120°37'1020.5
2018-May-18 10:01N 34°20' W 120°26'1121.5
2018-May-18 09:30N 34°17' W 120°13'1020.9
2018-May-18 09:00N 34°14' W 120°01'1121.0
2018-May-18 08:28N 34°11' W 119°48'1121.4
2018-May-18 07:58N 34°08' W 119°35'1021.3
2018-May-18 07:29N 34°06' W 119°24'1021.2
2018-May-18 07:00N 34°02' W 119°12'916.0
2018-May-18 06:27N 33°58' W 119°02'511.5
2018-May-18 05:59N 33°55' W 118°57'611.7
2018-May-18 05:30N 33°53' W 118°51'911.6
2018-May-18 04:44N 33°48' W 118°42'411.6
2018-May-18 04:22N 33°46' W 118°37'511.4
2018-May-18 03:59N 33°44' W 118°33'711.7
2018-May-18 03:21N 33°40' W 118°25'411.5
2018-May-18 03:00N 33°39' W 118°21'611.6
2018-May-18 02:30N 33°39' W 118°14'5 9.7
2018-May-18 02:00N 33°43' W 118°11'3 5.9
2018-May-18 01:30N 33°45' W 118°14'0 0.9
2018-May-18 01:00N 33°45' W 118°14'0 0.0
2018-May-18 00:30N 33°45' W 118°14'0 0.0
2018-May-17 23:58N 33°45' W 118°14'0 0.0
2018-May-17 23:28N 33°45' W 118°14'0 0.0
2018-May-17 22:58N 33°45' W 118°14'0 0.0
2018-May-17 22:28N 33°45' W 118°14'0 0.0
2018-May-17 21:58N 33°45' W 118°14'0 0.0
2018-May-17 21:28N 33°45' W 118°14'0 0.0
2018-May-17 20:58N 33°45' W 118°14'0 0.0
2018-May-17 20:25N 33°45' W 118°14'0 0.0
2018-May-17 19:58N 33°45' W 118°14'0 0.0
2018-May-17 19:28N 33°45' W 118°14'0 0.0
2018-May-17 18:58N 33°45' W 118°14'0 0.0
2018-May-17 18:28N 33°45' W 118°14'0 0.0
2018-May-17 17:58N 33°45' W 118°14'0 0.0
2018-May-17 17:28N 33°45' W 118°14'0 0.0
2018-May-17 16:58N 33°45' W 118°14'0 0.0
2018-May-17 16:28N 33°45' W 118°14'0 0.0
2018-May-17 15:58N 33°45' W 118°14'0 0.0
2018-May-17 15:28N 33°45' W 118°14'0 0.0
2018-May-17 14:58N 33°45' W 118°14'0 0.0
2018-May-17 14:28N 33°45' W 118°14'0 0.0
2018-May-17 13:58N 33°45' W 118°14'0 0.0
2018-May-17 13:28N 33°45' W 118°14'0 0.0
2018-May-17 12:58N 33°45' W 118°14'0 0.0
2018-May-17 12:28N 33°45' W 118°14'0 0.0
2018-May-17 11:58N 33°45' W 118°14'0 0.0
2018-May-17 11:28N 33°45' W 118°14'0 0.0
2018-May-17 10:58N 33°45' W 118°14'0 0.0
2018-May-17 10:28N 33°45' W 118°14'0 0.0
2018-May-17 09:58N 33°45' W 118°14'0 0.0
2018-May-17 09:28N 33°45' W 118°14'0 0.0
2018-May-17 08:58N 33°45' W 118°14'0 0.0
2018-May-17 08:19N 33°45' W 118°14'0 0.0
2018-May-17 07:58N 33°45' W 118°14'0 0.0
2018-May-17 07:28N 33°45' W 118°14'0 0.0
2018-May-17 06:52N 33°45' W 118°14'0 0.0
2018-May-17 06:28N 33°45' W 118°14'0 0.0
2018-May-17 05:58N 33°45' W 118°14'0 0.0
2018-May-17 05:28N 33°45' W 118°14'0 0.0
2018-May-17 04:58N 33°45' W 118°14'0 0.0
2018-May-17 04:28N 33°45' W 118°14'0 0.0
2018-May-17 03:58N 33°45' W 118°14'0 0.0
2018-May-17 03:28N 33°45' W 118°14'0 0.0
2018-May-17 02:58N 33°45' W 118°14'0 0.0
2018-May-17 02:28N 33°45' W 118°14'0 0.0
2018-May-17 01:58N 33°45' W 118°14'0 0.0
2018-May-17 01:28N 33°45' W 118°14'0 0.0
2018-May-17 00:58N 33°45' W 118°14'0 0.0
2018-May-17 00:28N 33°45' W 118°14'0 0.0
2018-May-16 23:52N 33°45' W 118°14'0 0.0
2018-May-16 23:28N 33°45' W 118°14'0 0.0
2018-May-16 22:58N 33°45' W 118°14'0 0.0
2018-May-16 22:28N 33°45' W 118°14'0 0.0
2018-May-16 21:58N 33°45' W 118°14'0 0.0
2018-May-16 21:28N 33°45' W 118°14'0 0.0
2018-May-16 20:58N 33°45' W 118°14'0 0.0
2018-May-16 20:28N 33°45' W 118°14'0 0.0
2018-May-16 19:58N 33°45' W 118°14'0 0.0
2018-May-16 19:28N 33°45' W 118°14'0 0.0
2018-May-16 18:55N 33°45' W 118°14'0 0.0
2018-May-16 18:28N 33°45' W 118°14'0 0.0
2018-May-16 17:58N 33°45' W 118°14'0 0.0
2018-May-16 17:28N 33°45' W 118°14'0 0.0
2018-May-16 16:49N 33°45' W 118°14'0 0.0
2018-May-16 16:28N 33°45' W 118°14'0 0.0
2018-May-16 15:58N 33°45' W 118°14'0 0.0
2018-May-16 15:25N 33°45' W 118°14'0 0.0
2018-May-16 14:58N 33°45' W 118°14'0 0.0
2018-May-16 14:28N 33°45' W 118°14'0 0.0
2018-May-16 13:58N 33°45' W 118°14'0 0.0
2018-May-16 13:28N 33°45' W 118°14'0 0.0
2018-May-16 12:58N 33°45' W 118°14'0 0.0
2018-May-16 12:28N 33°45' W 118°14'0 0.0
2018-May-16 11:58N 33°45' W 118°14'0 0.0
2018-May-16 11:28N 33°45' W 118°14'0 0.0
2018-May-16 10:58N 33°45' W 118°14'0 0.0
2018-May-16 10:28N 33°45' W 118°14'0 0.0
2018-May-16 09:58N 33°45' W 118°14'0 0.0
2018-May-16 09:28N 33°45' W 118°14'0 0.0
2018-May-16 08:58N 33°45' W 118°14'0 0.0
2018-May-16 08:28N 33°45' W 118°14'0 0.0
2018-May-16 07:58N 33°45' W 118°14'0 0.0
2018-May-16 07:28N 33°45' W 118°14'0 0.0
2018-May-16 06:58N 33°45' W 118°14'0 0.0
2018-May-16 06:28N 33°45' W 118°14'0 0.0
2018-May-16 05:58N 33°45' W 118°14'0 0.0
2018-May-16 05:28N 33°45' W 118°14'0 0.0
2018-May-16 04:58N 33°45' W 118°14'0 0.0
2018-May-16 04:28N 33°45' W 118°14'0 0.0
2018-May-16 03:55N 33°45' W 118°14'0 0.0
2018-May-16 03:28N 33°45' W 118°14'0 0.0
2018-May-16 02:58N 33°45' W 118°14'0 0.0
2018-May-16 02:28N 33°45' W 118°14'0 0.0
2018-May-16 01:55N 33°45' W 118°14'0 0.0
2018-May-16 01:28N 33°45' W 118°14'0 0.0
2018-May-16 00:58N 33°45' W 118°14'0 0.0
2018-May-16 00:28N 33°45' W 118°14'0 0.0
2018-May-15 23:58N 33°45' W 118°14'0 0.0
2018-May-15 23:28N 33°45' W 118°14'0 0.0
2018-May-15 22:58N 33°45' W 118°14'0 0.0
2018-May-15 22:28N 33°45' W 118°14'0 0.0
2018-May-15 21:58N 33°45' W 118°14'0 0.0
2018-May-15 21:28N 33°45' W 118°14'0 0.0
2018-May-15 20:58N 33°45' W 118°14'0 0.0
2018-May-15 20:28N 33°45' W 118°14'0 0.0
2018-May-15 19:58N 33°45' W 118°14'0 0.0
2018-May-15 19:28N 33°45' W 118°14'0 0.0
2018-May-15 18:58N 33°45' W 118°14'0 0.0
2018-May-15 18:28N 33°45' W 118°14'0 0.0
2018-May-15 17:55N 33°45' W 118°14'0 0.0
2018-May-15 17:28N 33°45' W 118°14'0 0.0
2018-May-15 16:58N 33°45' W 118°14'0 0.0
2018-May-15 16:28N 33°45' W 118°14'0 0.0
2018-May-15 15:58N 33°45' W 118°14'0 0.0
2018-May-15 15:25N 33°45' W 118°14'0 0.0
2018-May-15 14:58N 33°45' W 118°14'0 0.0
2018-May-15 14:25N 33°45' W 118°14'0 0.0
2018-May-15 13:58N 33°45' W 118°14'0 0.0
2018-May-15 13:28N 33°45' W 118°14'0 0.0
2018-May-15 12:58N 33°45' W 118°14'0 0.0
2018-May-15 12:28N 33°45' W 118°14'0 0.0
2018-May-15 11:58N 33°45' W 118°14'0 0.0
2018-May-15 11:28N 33°45' W 118°14'0 0.0
2018-May-15 10:58N 33°45' W 118°14'0 0.0
2018-May-15 10:28N 33°45' W 118°14'0 0.0
2018-May-15 09:58N 33°45' W 118°14'0 0.0
2018-May-15 09:28N 33°45' W 118°14'0 0.0
2018-May-15 08:55N 33°45' W 118°14'0 0.0
2018-May-15 08:28N 33°45' W 118°14'0 0.0
2018-May-15 07:58N 33°45' W 118°14'0 0.0
2018-May-15 07:25N 33°45' W 118°14'0 0.0
2018-May-15 06:58N 33°45' W 118°14'0 0.0
2018-May-15 06:28N 33°45' W 118°14'0 0.0
2018-May-15 05:58N 33°45' W 118°14'0 0.0
2018-May-15 05:28N 33°45' W 118°14'0 0.0
2018-May-15 04:58N 33°45' W 118°14'0 0.0
2018-May-15 04:28N 33°45' W 118°14'0 0.0
2018-May-15 03:58N 33°45' W 118°14'0 0.0
2018-May-15 03:25N 33°45' W 118°14'0 0.0
2018-May-15 02:58N 33°45' W 118°14'0 0.0
2018-May-15 02:28N 33°45' W 118°14'0 0.0
2018-May-15 01:58N 33°45' W 118°14'0 0.0
2018-May-15 01:25N 33°45' W 118°14'0 0.0
2018-May-15 00:58N 33°45' W 118°14'0 0.0
2018-May-15 00:28N 33°45' W 118°14'0 0.0
2018-May-14 23:58N 33°45' W 118°14'0 0.0
2018-May-14 23:28N 33°45' W 118°14'0 0.0
2018-May-14 22:58N 33°45' W 118°14'0 0.0
2018-May-14 22:28N 33°45' W 118°14'0 0.0
2018-May-14 21:58N 33°45' W 118°14'0 0.0
2018-May-14 21:28N 33°45' W 118°14'0 0.0
2018-May-14 20:58N 33°45' W 118°14'0 0.0
2018-May-14 16:22N 33°45' W 118°14'0 0.0
2018-May-14 14:55N 33°45' W 118°14'0 0.0
2018-May-14 14:28N 33°45' W 118°14'0 0.0
2018-May-14 13:58N 33°45' W 118°14'0 0.0
2018-May-14 13:28N 33°45' W 118°14'0 0.0
2018-May-14 12:58N 33°45' W 118°14'0 0.0
2018-May-14 12:28N 33°45' W 118°14'0 0.0
2018-May-14 11:55N 33°45' W 118°14'0 0.0
2018-May-14 11:28N 33°45' W 118°14'0 0.0
2018-May-14 10:58N 33°45' W 118°14'0 0.0
2018-May-14 10:28N 33°45' W 118°14'0 0.0
2018-May-14 09:58N 33°45' W 118°14'0 0.0
2018-May-14 09:28N 33°45' W 118°14'0 0.0
2018-May-14 08:58N 33°45' W 118°14'0 0.0
2018-May-14 08:28N 33°45' W 118°14'0 0.0
2018-May-14 07:58N 33°45' W 118°14'0 0.0
2018-May-14 07:22N 33°45' W 118°14'0 0.0
2018-May-14 06:58N 33°45' W 118°14'0 0.0
2018-May-14 06:28N 33°45' W 118°14'0 0.0
2018-May-14 05:58N 33°45' W 118°14'0 0.0
2018-May-14 05:28N 33°45' W 118°14'0 0.0
2018-May-14 04:58N 33°45' W 118°14'0 0.0
2018-May-14 04:28N 33°45' W 118°14'0 0.0
2018-May-14 03:58N 33°45' W 118°14'0 0.0
2018-May-14 03:28N 33°45' W 118°14'0 0.0
2018-May-14 02:58N 33°45' W 118°14'0 0.0
2018-May-14 02:25N 33°45' W 118°14'0 0.0
2018-May-14 01:58N 33°45' W 118°14'0 0.0
2018-May-14 01:28N 33°45' W 118°14'0 0.0
2018-May-14 00:58N 33°45' W 118°14'0 0.0
2018-May-14 00:28N 33°45' W 118°14'0 0.0
2018-May-13 23:58N 33°45' W 118°14'0 0.0
2018-May-13 23:29N 33°45' W 118°14'0 0.0
2018-May-13 22:59N 33°45' W 118°14'0 0.0
2018-May-13 22:29N 33°45' W 118°14'0 0.0
2018-May-13 21:59N 33°45' W 118°14'0 0.0
2018-May-13 21:29N 33°45' W 118°14'0 0.0
2018-May-13 20:59N 33°45' W 118°14'0 0.0
2018-May-13 20:26N 33°45' W 118°14'0 0.0
2018-May-13 19:59N 33°45' W 118°14'0 0.0
2018-May-13 19:29N 33°45' W 118°14'0 0.0
2018-May-13 18:59N 33°45' W 118°14'1 1.5
2018-May-13 18:30N 33°45' W 118°14'4 7.2
2018-May-13 18:00N 33°42' W 118°11'5 9.6
2018-May-13 17:31N 33°38' W 118°13'3511.2
2018-May-13 14:25N 33°51' W 118°52'511.3
2018-May-13 14:01N 33°53' W 118°56'611.5
2018-May-13 13:30N 33°56' W 119°02'713.5
2018-May-13 13:00N 33°59' W 119°10'1018.3
2018-May-13 12:26N 34°03' W 119°21'818.5
2018-May-13 12:00N 34°06' W 119°30'918.1
2018-May-13 11:30N 34°08' W 119°41'1018.8
2018-May-13 10:59N 34°11' W 119°52'918.9
2018-May-13 10:30N 34°13' W 120°03'1018.6
2018-May-13 09:59N 34°16' W 120°14'918.4
2018-May-13 09:30N 34°18' W 120°25'817.4
2018-May-13 09:01N 34°20' W 120°35'917.9
2018-May-13 08:30N 34°23' W 120°45'1018.3
2018-May-13 07:58N 34°25' W 120°57'817.9
2018-May-13 07:31N 34°26' W 121°06'917.9
2018-May-13 07:00N 34°26' W 121°17'917.9
2018-May-13 06:31N 34°26' W 121°28'  

Dump ship's entire track history